Time;durP1;ratioP1;P1;durP2;ratioP2;P2;SDS_P1;SDS_P2;PMS_P1;PMS_P2;Temp;Humidity;BMP_temperature;BMP_pressure;BME280_temperature;BME280_humidity;BME280_pressure;Samples;Min_cycle;Max_cycle;Signal;HPM_P1;HPM_P2
2021/03/17 00:00:06;;;;;;;5.50;5.00;;;;;;;;;;4863310;29;20630;-78
2021/03/17 00:02:53;;;;;;;4.70;4.30;;;;;;;;;;4859299;29;20230;-79
2021/03/17 00:05:41;;;;;;;5.30;4.80;;;;;;;;;;4856525;29;20233;-80
2021/03/17 00:08:29;;;;;;;4.67;4.27;;;;;;;;;;4852541;29;20232;-79
2021/03/17 00:11:16;;;;;;;4.97;4.47;;;;;;;;;;4858417;29;20231;-78
2021/03/17 00:14:19;;;;;;;6.13;5.63;;;;;;;;;;4846935;29;20238;-79
2021/03/17 00:17:05;;;;;;;5.40;4.90;;;;;;;;;;4862138;29;20241;-79
2021/03/17 00:19:53;;;;;;;6.00;5.40;;;;;;;;;;4854178;29;20234;-78
2021/03/17 00:22:39;;;;;;;6.63;6.03;;;;;;;;;;4864522;29;20238;-79
2021/03/17 00:25:29;;;;;;;5.63;5.13;;;;;;;;;;4863065;29;20237;-79
2021/03/17 00:28:16;;;;;;;5.00;4.60;;;;;;;;;;4859852;29;20238;-81
2021/03/17 00:31:03;;;;;;;5.70;5.20;;;;;;;;;;4881028;29;20301;-80
2021/03/17 00:33:50;;;;;;;5.90;5.30;;;;;;;;;;4872440;29;20198;-81
2021/03/17 00:36:37;;;;;;;6.03;5.47;;;;;;;;;;4860798;29;20255;-80
2021/03/17 00:39:25;;;;;;;5.43;4.93;;;;;;;;;;4874408;29;20240;-81
2021/03/17 00:42:13;;;;;;;5.60;5.10;;;;;;;;;;4851624;29;20241;-79
2021/03/17 00:45:00;;;;;;;6.27;5.67;;;;;;;;;;4859553;29;20237;-79
2021/03/17 00:47:48;;;;;;;5.67;5.17;;;;;;;;;;4848660;29;20202;-79
2021/03/17 00:50:17;;;;;;;5.63;5.13;;;;;;;;;;4862269;29;20234;-79
2021/03/17 00:53:03;;;;;;;5.67;5.13;;;;;;;;;;4833875;29;20217;-79
2021/03/17 00:55:32;;;;;;;5.50;5.00;;;;;;;;;;4850512;29;20245;-80
2021/03/17 00:58:27;;;;;;;5.60;5.10;;;;;;;;;;4860898;29;20744;-79
2021/03/17 01:00:56;;;;;;;6.17;5.57;;;;;;;;;;4824668;29;20235;-79
2021/03/17 01:03:25;;;;;;;5.70;5.20;;;;;;;;;;4843416;29;20229;-79
2021/03/17 01:05:54;;;;;;;4.93;4.53;;;;;;;;;;4827542;29;20246;-80
2021/03/17 01:08:25;;;;;;;5.03;4.53;;;;;;;;;;4824274;29;20543;-80
2021/03/17 01:11:05;;;;;;;5.60;5.10;;;;;;;;;;4857184;29;20205;-80
2021/03/17 01:13:36;;;;;;;5.60;5.10;;;;;;;;;;4843593;29;20237;-80
2021/03/17 01:16:07;;;;;;;6.50;5.50;;;;;;;;;;4861521;29;20624;-80
2021/03/17 01:18:36;;;;;;;6.37;5.60;;;;;;;;;;4857255;29;20735;-80
2021/03/17 01:21:08;;;;;;;5.90;5.30;;;;;;;;;;4844582;29;20603;-80
2021/03/17 01:23:37;;;;;;;6.57;5.30;;;;;;;;;;4842132;29;20633;-81
2021/03/17 01:26:06;;;;;;;5.50;5.00;;;;;;;;;;4828153;29;20608;-80
2021/03/17 01:28:39;;;;;;;6.00;5.50;;;;;;;;;;4841384;29;20226;-80
2021/03/17 01:31:09;;;;;;;5.70;5.10;;;;;;;;;;4828285;29;20715;-80
2021/03/17 01:33:40;;;;;;;6.63;6.03;;;;;;;;;;4837521;29;20620;-80
2021/03/17 01:36:11;;;;;;;6.23;5.63;;;;;;;;;;4844731;29;20241;-80
2021/03/17 01:38:40;;;;;;;6.80;5.80;;;;;;;;;;4837875;29;20336;-80
2021/03/17 01:41:08;;;;;;;6.10;5.23;;;;;;;;;;4846050;29;20229;-79
2021/03/17 01:43:39;;;;;;;5.67;5.17;;;;;;;;;;4827275;29;20233;-80
2021/03/17 01:46:11;;;;;;;5.47;4.97;;;;;;;;;;4834913;29;20257;-80
2021/03/17 01:48:41;;;;;;;5.83;5.33;;;;;;;;;;4840708;29;20225;-80
2021/03/17 01:51:11;;;;;;;6.20;5.50;;;;;;;;;;4829448;29;20244;-80
2021/03/17 01:53:40;;;;;;;6.03;5.43;;;;;;;;;;4826182;29;20234;-80
2021/03/17 01:56:10;;;;;;;6.03;5.53;;;;;;;;;;4850465;29;20242;-80
2021/03/17 01:58:40;;;;;;;6.17;5.57;;;;;;;;;;4827370;29;20241;-79
2021/03/17 02:01:09;;;;;;;6.70;6.00;;;;;;;;;;4819659;29;20231;-80
2021/03/17 02:03:38;;;;;;;6.07;5.47;;;;;;;;;;4838628;29;20261;-80
2021/03/17 02:06:07;;;;;;;5.67;5.13;;;;;;;;;;4819622;29;20230;-79
2021/03/17 02:08:37;;;;;;;5.13;4.63;;;;;;;;;;4835426;29;20206;-80
2021/03/17 02:11:06;;;;;;;5.60;5.10;;;;;;;;;;4830455;29;20218;-80
2021/03/17 02:13:58;;;;;;;5.37;4.87;;;;;;;;;;4828669;29;20242;-80
2021/03/17 02:16:31;;;;;;;5.53;5.03;;;;;;;;;;4837256;29;20242;-82
2021/03/17 02:19:24;;;;;;;5.53;5.03;;;;;;;;;;4811825;29;20230;-80
2021/03/17 02:22:33;;;;;;;6.40;5.80;;;;;;;;;;4846760;29;20237;-82
2021/03/17 02:25:05;;;;;;;6.47;5.33;;;;;;;;;;4856154;29;20234;-83
2021/03/17 02:27:44;;;;;;;5.23;4.70;;;;;;;;;;4843190;29;20235;-80
2021/03/17 02:30:42;;;;;;;5.77;5.17;;;;;;;;;;4839866;29;20227;-79
2021/03/17 02:33:45;;;;;;;6.17;5.63;;;;;;;;;;4836069;29;20234;-79
2021/03/17 02:36:20;;;;;;;5.43;4.93;;;;;;;;;;4839486;29;20258;-79
2021/03/17 02:38:50;;;;;;;5.37;4.47;;;;;;;;;;4832203;29;20226;-80
2021/03/17 02:41:23;;;;;;;5.50;5.00;;;;;;;;;;4822826;29;20245;-80
2021/03/17 02:43:54;;;;;;;6.20;5.60;;;;;;;;;;4822006;29;20230;-80
2021/03/17 02:46:23;;;;;;;5.07;4.60;;;;;;;;;;4843323;29;20724;-79
2021/03/17 02:49:00;;;;;;;5.93;5.43;;;;;;;;;;4831171;29;20200;-80
2021/03/17 02:51:33;;;;;;;5.77;5.27;;;;;;;;;;4827845;29;20207;-79
2021/03/17 02:54:03;;;;;;;5.80;5.30;;;;;;;;;;4824491;29;20593;-80
2021/03/17 02:56:33;;;;;;;5.73;5.13;;;;;;;;;;4837456;29;20238;-80
2021/03/17 02:59:01;;;;;;;5.27;4.77;;;;;;;;;;4838723;29;20230;-79
2021/03/17 03:01:31;;;;;;;5.23;4.77;;;;;;;;;;4859411;29;20230;-81
2021/03/17 03:04:00;;;;;;;6.37;4.70;;;;;;;;;;4851789;29;20236;-81
2021/03/17 03:06:28;;;;;;;4.93;4.53;;;;;;;;;;4820953;29;20243;-80
2021/03/17 03:08:55;;;;;;;5.07;4.57;;;;;;;;;;4850355;29;20243;-79
2021/03/17 03:11:23;;;;;;;5.50;5.00;;;;;;;;;;4838612;29;20238;-80
2021/03/17 03:13:52;;;;;;;5.83;5.23;;;;;;;;;;4831178;29;20238;-81
2021/03/17 03:16:20;;;;;;;8.43;5.37;;;;;;;;;;4831417;29;20238;-79
2021/03/17 03:18:49;;;;;;;5.67;5.17;;;;;;;;;;4833443;29;20238;-81
2021/03/17 03:21:19;;;;;;;5.50;4.87;;;;;;;;;;4832026;29;20590;-81
2021/03/17 03:23:47;;;;;;;5.60;5.10;;;;;;;;;;4834851;29;20225;-78
2021/03/17 03:26:17;;;;;;;5.70;5.10;;;;;;;;;;4850291;29;20266;-82
2021/03/17 03:28:46;;;;;;;6.17;5.57;;;;;;;;;;4836072;29;20239;-80
2021/03/17 03:31:14;;;;;;;5.23;4.73;;;;;;;;;;4836478;29;20234;-79
2021/03/17 03:33:42;;;;;;;5.50;5.00;;;;;;;;;;4831210;29;20710;-82
2021/03/17 03:36:10;;;;;;;5.40;4.80;;;;;;;;;;4827763;29;20250;-80
2021/03/17 03:38:38;;;;;;;5.57;5.03;;;;;;;;;;4830294;29;20235;-80
2021/03/17 03:41:06;;;;;;;6.30;5.70;;;;;;;;;;4837363;29;20234;-79
2021/03/17 03:43:34;;;;;;;7.83;6.70;;;;;;;;;;4823555;29;20230;-80
2021/03/17 03:46:01;;;;;;;8.60;7.70;;;;;;;;;;4831335;29;20242;-81
2021/03/17 03:48:30;;;;;;;7.60;6.80;;;;;;;;;;4831919;29;20227;-83
2021/03/17 03:50:58;;;;;;;7.70;6.90;;;;;;;;;;4825479;29;20252;-80
2021/03/17 03:53:42;;;;;;;7.20;6.50;;;;;;;;;;4828262;29;20242;-79
2021/03/17 03:56:13;;;;;;;8.53;7.17;;;;;;;;;;4830421;29;20230;-81
2021/03/17 03:58:44;;;;;;;6.97;6.27;;;;;;;;;;4831513;29;20238;-80
2021/03/17 04:01:14;;;;;;;7.77;6.73;;;;;;;;;;4845543;29;20231;-81
2021/03/17 04:03:45;;;;;;;7.87;6.70;;;;;;;;;;4837969;29;20242;-81
2021/03/17 04:06:14;;;;;;;9.17;8.17;;;;;;;;;;4836329;29;20242;-80
2021/03/17 04:08:44;;;;;;;8.07;7.27;;;;;;;;;;4831102;29;20593;-80
2021/03/17 04:11:14;;;;;;;7.47;6.77;;;;;;;;;;4830298;29;20595;-81
2021/03/17 04:13:42;;;;;;;8.03;7.23;;;;;;;;;;4840854;29;20231;-80
2021/03/17 04:16:12;;;;;;;8.57;7.33;;;;;;;;;;4844953;29;20239;-79
2021/03/17 04:18:44;;;;;;;8.13;7.07;;;;;;;;;;4841105;29;20250;-81
2021/03/17 04:21:16;;;;;;;8.33;7.53;;;;;;;;;;4836342;29;20247;-80
2021/03/17 04:23:46;;;;;;;8.97;7.47;;;;;;;;;;4839515;29;20240;-80
2021/03/17 04:26:15;;;;;;;7.10;6.20;;;;;;;;;;4834784;29;20242;-79
2021/03/17 04:28:43;;;;;;;9.43;7.87;;;;;;;;;;4828954;29;20237;-79
2021/03/17 04:31:10;;;;;;;8.93;8.03;;;;;;;;;;4854043;29;20239;-79
2021/03/17 04:33:38;;;;;;;7.67;6.87;;;;;;;;;;4836835;29;20238;-79
2021/03/17 04:36:07;;;;;;;6.93;6.23;;;;;;;;;;4836747;29;20254;-80
2021/03/17 04:38:35;;;;;;;7.60;6.77;;;;;;;;;;4830352;29;20227;-79
2021/03/17 04:41:04;;;;;;;7.57;6.83;;;;;;;;;;4841698;29;20241;-79
2021/03/17 04:43:32;;;;;;;7.43;6.70;;;;;;;;;;4860878;29;20241;-78
2021/03/17 04:46:01;;;;;;;9.60;8.60;;;;;;;;;;4855534;29;20249;-77
2021/03/17 04:48:29;;;;;;;9.67;8.67;;;;;;;;;;4853519;29;20246;-80
2021/03/17 04:50:58;;;;;;;9.90;8.90;;;;;;;;;;4856578;29;20238;-79
2021/03/17 04:53:26;;;;;;;10.37;9.23;;;;;;;;;;4855085;29;20239;-80
2021/03/17 04:55:53;;;;;;;10.63;9.53;;;;;;;;;;4847400;29;20241;-79
2021/03/17 04:58:24;;;;;;;11.03;8.83;;;;;;;;;;4860510;29;20702;-80
2021/03/17 05:00:52;;;;;;;11.20;9.67;;;;;;;;;;4837801;29;20242;-80
2021/03/17 05:03:23;;;;;;;10.33;9.30;;;;;;;;;;4842650;29;20606;-78
2021/03/17 05:05:53;;;;;;;11.70;10.50;;;;;;;;;;4854490;29;20507;-79
2021/03/17 05:08:21;;;;;;;12.30;11.00;;;;;;;;;;4844596;29;20254;-79
2021/03/17 05:10:49;;;;;;;11.53;9.83;;;;;;;;;;4847363;29;20235;-79
2021/03/17 05:13:18;;;;;;;11.13;10.00;;;;;;;;;;4854214;29;20449;-78
2021/03/17 05:15:47;;;;;;;11.27;10.17;;;;;;;;;;4860703;29;20227;-78
2021/03/17 05:18:17;;;;;;;12.40;10.90;;;;;;;;;;4860987;29;20235;-77
2021/03/17 05:20:47;;;;;;;12.03;10.70;;;;;;;;;;4855615;29;20234;-79
2021/03/17 05:23:17;;;;;;;13.70;11.63;;;;;;;;;;4845806;29;20238;-79
2021/03/17 05:25:45;;;;;;;14.83;11.53;;;;;;;;;;4844656;29;20242;-78
2021/03/17 05:28:15;;;;;;;14.13;12.40;;;;;;;;;;4853940;29;20218;-78
2021/03/17 05:30:45;;;;;;;14.03;11.97;;;;;;;;;;4841040;29;20226;-79
2021/03/17 05:33:13;;;;;;;13.80;10.97;;;;;;;;;;4856073;29;20239;-80
2021/03/17 05:35:41;;;;;;;12.83;11.43;;;;;;;;;;4852489;29;20746;-79
2021/03/17 05:38:09;;;;;;;13.23;11.77;;;;;;;;;;4836730;29;20949;-79
2021/03/17 05:40:37;;;;;;;13.33;11.50;;;;;;;;;;4828784;29;20585;-78
2021/03/17 05:43:06;;;;;;;13.77;11.80;;;;;;;;;;4831917;29;20244;-78
2021/03/17 05:45:35;;;;;;;14.80;12.13;;;;;;;;;;4838119;29;20238;-79
2021/03/17 05:48:09;;;;;;;13.90;11.87;;;;;;;;;;4843402;29;20233;-79
2021/03/17 05:50:39;;;;;;;14.50;11.67;;;;;;;;;;4842087;29;20760;-79
2021/03/17 05:53:07;;;;;;;13.83;11.23;;;;;;;;;;4850444;29;20834;-79
2021/03/17 05:55:35;;;;;;;14.17;12.03;;;;;;;;;;4842696;29;20231;-79
2021/03/17 05:58:03;;;;;;;14.03;12.17;;;;;;;;;;4845682;29;20246;-80
2021/03/17 06:00:31;;;;;;;14.30;11.87;;;;;;;;;;4866636;29;20241;-79
2021/03/17 06:03:04;;;;;;;15.43;12.40;;;;;;;;;;4854693;29;20237;-79
2021/03/17 06:05:32;;;;;;;12.97;10.43;;;;;;;;;;4843945;29;20242;-78
2021/03/17 06:08:04;;;;;;;15.40;11.63;;;;;;;;;;4855934;29;20241;-79
2021/03/17 06:10:33;;;;;;;12.90;11.13;;;;;;;;;;4863431;29;20235;-79
2021/03/17 06:13:02;;;;;;;13.33;10.97;;;;;;;;;;4844236;29;20600;-79
2021/03/17 06:15:30;;;;;;;17.40;12.07;;;;;;;;;;4845275;29;20237;-79
2021/03/17 06:17:58;;;;;;;12.50;10.97;;;;;;;;;;4864063;29;20241;-80
2021/03/17 06:20:27;;;;;;;13.70;11.87;;;;;;;;;;4845157;29;20241;-79
2021/03/17 06:22:59;;;;;;;12.67;11.07;;;;;;;;;;4838022;29;20226;-79
2021/03/17 06:25:28;;;;;;;15.13;11.47;;;;;;;;;;4864274;29;20236;-78
2021/03/17 06:27:55;;;;;;;12.90;11.13;;;;;;;;;;4876131;29;20238;-79
2021/03/17 06:30:23;;;;;;;13.37;10.23;;;;;;;;;;4871732;29;20257;-80
2021/03/17 06:32:51;;;;;;;12.07;10.60;;;;;;;;;;4856364;29;20234;-78
2021/03/17 06:35:20;;;;;;;13.50;11.00;;;;;;;;;;4866606;29;20241;-78
2021/03/17 06:37:52;;;;;;;12.27;10.83;;;;;;;;;;4839489;29;20237;-79
2021/03/17 06:40:29;;;;;;;14.13;11.23;;;;;;;;;;4812784;29;20598;-79
2021/03/17 06:43:04;;;;;;;11.80;10.33;;;;;;;;;;4846370;29;20233;-79
2021/03/17 06:45:37;;;;;;;12.43;10.33;;;;;;;;;;4813761;29;22546;-78
2021/03/17 06:48:19;;;;;;;12.33;10.30;;;;;;;;;;4806321;29;20260;-78
2021/03/17 06:50:47;;;;;;;11.67;9.17;;;;;;;;;;4848698;29;20226;-78
2021/03/17 06:53:35;;;;;;;12.43;10.27;;;;;;;;;;4836900;29;20238;-78
2021/03/17 06:56:12;;;;;;;11.17;9.30;;;;;;;;;;4857037;29;20498;-79
2021/03/17 06:58:40;;;;;;;12.27;10.30;;;;;;;;;;4824689;29;20229;-79
2021/03/17 07:01:25;;;;;;;10.50;8.93;;;;;;;;;;4854330;29;20238;-79
2021/03/17 07:03:54;;;;;;;10.87;9.77;;;;;;;;;;4836448;29;20241;-79
2021/03/17 07:06:22;;;;;;;11.33;9.83;;;;;;;;;;4844969;29;20234;-79
2021/03/17 07:08:50;;;;;;;11.13;9.90;;;;;;;;;;4847522;29;20238;-79
2021/03/17 07:11:25;;;;;;;11.60;10.40;;;;;;;;;;4835400;29;20234;-80
2021/03/17 07:13:54;;;;;;;11.67;9.93;;;;;;;;;;4833600;29;20234;-79
2021/03/17 07:16:32;;;;;;;11.63;10.43;;;;;;;;;;4852509;29;20268;-80
2021/03/17 07:19:33;;;;;;;12.23;10.43;;;;;;;;;;4860884;29;20658;-79
2021/03/17 07:22:06;;;;;;;11.57;10.37;;;;;;;;;;4858285;29;20225;-78
2021/03/17 07:24:34;;;;;;;12.13;10.60;;;;;;;;;;4855832;29;20235;-78
2021/03/17 07:27:14;;;;;;;44.17;12.97;;;;;;;;;;4862280;29;20261;-78
2021/03/17 07:29:41;;;;;;;14.57;12.13;;;;;;;;;;4873175;29;20629;-77
2021/03/17 07:32:09;;;;;;;11.97;10.07;;;;;;;;;;4833629;29;20234;-78
2021/03/17 07:34:38;;;;;;;13.00;10.87;;;;;;;;;;4875107;29;20229;-78
2021/03/17 07:37:07;;;;;;;13.00;10.63;;;;;;;;;;4846532;29;20587;-78
2021/03/17 07:39:37;;;;;;;55.23;14.30;;;;;;;;;;4859089;29;20238;-78
2021/03/17 07:42:06;;;;;;;11.43;10.23;;;;;;;;;;4839030;29;20241;-79
2021/03/17 07:44:36;;;;;;;12.00;10.70;;;;;;;;;;4846079;29;20234;-78
2021/03/17 07:47:05;;;;;;;13.83;11.77;;;;;;;;;;4851485;29;20356;-78
2021/03/17 07:49:48;;;;;;;13.07;10.97;;;;;;;;;;4856097;29;20237;-79
2021/03/17 07:52:19;;;;;;;11.93;10.60;;;;;;;;;;4857600;29;20237;-78
2021/03/17 07:54:50;;;;;;;11.27;10.10;;;;;;;;;;4857614;29;20229;-78
2021/03/17 07:57:18;;;;;;;11.07;9.60;;;;;;;;;;4837717;29;20246;-78
2021/03/17 07:59:55;;;;;;;10.30;9.20;;;;;;;;;;4851133;29;20225;-78
2021/03/17 08:02:24;;;;;;;10.73;9.53;;;;;;;;;;4831590;29;20231;-79
2021/03/17 08:04:53;;;;;;;10.30;9.20;;;;;;;;;;4844612;29;20227;-79
2021/03/17 08:07:21;;;;;;;9.30;8.33;;;;;;;;;;4849877;29;20245;-78
2021/03/17 08:09:49;;;;;;;10.60;9.47;;;;;;;;;;4861006;29;20215;-78
2021/03/17 08:12:17;;;;;;;10.93;9.83;;;;;;;;;;4841605;29;20251;-78
2021/03/17 08:14:47;;;;;;;11.00;9.83;;;;;;;;;;4825181;29;20708;-79
2021/03/17 08:17:31;;;;;;;12.00;10.70;;;;;;;;;;4831389;29;20242;-79
2021/03/17 08:20:19;;;;;;;14.03;11.07;;;;;;;;;;4834634;29;20720;-79
2021/03/17 08:22:48;;;;;;;11.67;10.30;;;;;;;;;;4843463;29;20234;-78
2021/03/17 08:25:38;;;;;;;12.73;10.70;;;;;;;;;;4840803;29;20245;-78
2021/03/17 08:28:22;;;;;;;12.07;10.77;;;;;;;;;;4836818;29;20279;-77
2021/03/17 08:30:50;;;;;;;13.10;11.37;;;;;;;;;;4840531;29;20604;-80
2021/03/17 08:33:32;;;;;;;11.80;10.40;;;;;;;;;;4838856;29;20227;-78
2021/03/17 08:36:03;;;;;;;12.27;10.93;;;;;;;;;;4813256;29;20227;-78
2021/03/17 08:38:48;;;;;;;13.93;11.33;;;;;;;;;;4825750;29;20235;-80
2021/03/17 08:41:18;;;;;;;11.37;10.20;;;;;;;;;;4833068;29;20245;-78
2021/03/17 08:43:48;;;;;;;11.93;10.57;;;;;;;;;;4830015;29;20230;-79
2021/03/17 08:46:18;;;;;;;12.33;10.57;;;;;;;;;;4830331;29;20250;-78
2021/03/17 08:49:04;;;;;;;12.67;10.83;;;;;;;;;;4836385;29;20716;-78
2021/03/17 08:52:06;;;;;;;13.17;11.00;;;;;;;;;;4814112;29;20235;-79
2021/03/17 08:55:08;;;;;;;12.90;10.90;;;;;;;;;;4828382;29;20713;-78
2021/03/17 08:58:04;;;;;;;12.53;11.13;;;;;;;;;;4832343;29;20234;-78
2021/03/17 09:00:53;;;;;;;13.03;11.30;;;;;;;;;;4828363;29;20360;-79
2021/03/17 09:03:50;;;;;;;16.40;12.07;;;;;;;;;;4836537;29;20242;-77
2021/03/17 09:06:27;;;;;;;13.80;11.97;;;;;;;;;;4816190;29;20775;-79
2021/03/17 09:09:00;;;;;;;14.17;12.67;;;;;;;;;;4848635;29;20246;-77
2021/03/17 09:11:57;;;;;;;15.23;12.13;;;;;;;;;;4847107;29;20227;-80
2021/03/17 09:14:34;;;;;;;15.47;12.93;;;;;;;;;;4835408;29;20621;-79
2021/03/17 09:17:30;;;;;;;15.33;13.00;;;;;;;;;;4846000;29;20230;-78
2021/03/17 09:20:05;;;;;;;15.63;13.70;;;;;;;;;;4854312;29;20245;-78
2021/03/17 09:22:42;;;;;;;16.57;13.47;;;;;;;;;;4846451;29;20605;-80
2021/03/17 09:25:23;;;;;;;16.50;13.40;;;;;;;;;;4853960;29;20233;-80
2021/03/17 09:27:54;;;;;;;13.27;11.87;;;;;;;;;;4848683;29;20230;-79
2021/03/17 09:30:24;;;;;;;14.20;11.73;;;;;;;;;;4846714;29;20486;-77
2021/03/17 09:32:59;;;;;;;11.83;10.47;;;;;;;;;;4849435;29;20234;-79
2021/03/17 09:35:27;;;;;;;11.63;10.47;;;;;;;;;;4833148;29;20247;-78
2021/03/17 09:38:11;;;;;;;12.33;10.53;;;;;;;;;;4810860;29;20233;-79
2021/03/17 09:40:46;;;;;;;11.03;9.80;;;;;;;;;;4834884;29;20241;-78
2021/03/17 09:43:35;;;;;;;11.97;10.30;;;;;;;;;;4843543;29;20242;-79
2021/03/17 09:46:34;;;;;;;11.20;9.60;;;;;;;;;;4844173;29;20252;-80
2021/03/17 09:49:06;;;;;;;10.07;9.00;;;;;;;;;;4862787;29;20238;-79
2021/03/17 09:51:35;;;;;;;8.77;7.77;;;;;;;;;;4853587;29;20245;-81
2021/03/17 09:54:07;;;;;;;9.63;8.63;;;;;;;;;;4835439;29;20234;-79
2021/03/17 09:56:39;;;;;;;9.27;8.27;;;;;;;;;;4859593;29;20230;-80
2021/03/17 09:59:19;;;;;;;9.87;8.87;;;;;;;;;;4852793;29;20245;-77
2021/03/17 10:01:48;;;;;;;8.50;7.60;;;;;;;;;;4834130;29;20231;-82
2021/03/17 10:04:21;;;;;;;7.57;6.87;;;;;;;;;;4837853;29;20234;-80
2021/03/17 10:06:49;;;;;;;7.43;5.93;;;;;;;;;;4835369;29;20743;-80
2021/03/17 10:09:18;;;;;;;7.07;5.57;;;;;;;;;;4833359;29;20239;-80
2021/03/17 10:11:46;;;;;;;7.53;5.23;;;;;;;;;;4842534;29;20606;-79
2021/03/17 10:14:15;;;;;;;6.93;5.33;;;;;;;;;;4833281;29;20241;-78
2021/03/17 10:16:43;;;;;;;7.90;5.57;;;;;;;;;;4840589;29;20235;-80
2021/03/17 10:19:13;;;;;;;5.73;4.83;;;;;;;;;;4837168;29;20250;-80
2021/03/17 10:21:48;;;;;;;5.30;4.57;;;;;;;;;;4828446;29;20225;-79
2021/03/17 10:24:29;;;;;;;7.10;5.17;;;;;;;;;;4837035;29;20241;-79
2021/03/17 10:26:57;;;;;;;5.70;5.10;;;;;;;;;;4837854;29;20253;-81
2021/03/17 10:29:25;;;;;;;5.97;4.83;;;;;;;;;;4851467;29;20230;-78
2021/03/17 10:31:55;;;;;;;5.47;4.77;;;;;;;;;;4855770;29;20249;-78
2021/03/17 10:34:25;;;;;;;5.73;5.13;;;;;;;;;;4859187;29;20240;-78
2021/03/17 10:36:54;;;;;;;6.10;5.47;;;;;;;;;;4845717;29;20231;-79
2021/03/17 10:39:26;;;;;;;6.73;5.90;;;;;;;;;;4847996;29;20241;-80
2021/03/17 10:41:54;;;;;;;6.13;5.43;;;;;;;;;;4843431;29;20211;-78
2021/03/17 10:44:23;;;;;;;6.17;5.57;;;;;;;;;;4838691;29;20239;-79
2021/03/17 10:47:08;;;;;;;6.37;5.77;;;;;;;;;;4837911;29;20246;-79
2021/03/17 10:49:37;;;;;;;6.20;5.60;;;;;;;;;;4838020;29;20231;-79
2021/03/17 10:52:08;;;;;;;5.77;5.17;;;;;;;;;;4835471;29;20234;-80
2021/03/17 10:54:39;;;;;;;5.70;5.03;;;;;;;;;;4833512;29;21114;-81
2021/03/17 10:57:19;;;;;;;6.37;5.43;;;;;;;;;;4828166;29;20234;-80
2021/03/17 10:59:48;;;;;;;6.23;5.63;;;;;;;;;;4834605;29;20536;-80
2021/03/17 11:02:25;;;;;;;6.43;5.73;;;;;;;;;;4862761;29;20215;-78
2021/03/17 11:05:17;;;;;;;5.70;5.13;;;;;;;;;;4871292;29;20226;-78
2021/03/17 11:07:53;;;;;;;5.90;5.30;;;;;;;;;;4856401;29;20231;-81
2021/03/17 11:10:49;;;;;;;6.23;5.47;;;;;;;;;;4859037;29;20225;-80
2021/03/17 11:13:26;;;;;;;6.43;5.60;;;;;;;;;;4836921;29;20297;-79
2021/03/17 11:15:54;;;;;;;5.30;4.80;;;;;;;;;;4855775;29;20237;-79
2021/03/17 11:18:24;;;;;;;6.63;5.93;;;;;;;;;;4853233;29;20237;-81
2021/03/17 11:20:55;;;;;;;6.43;5.83;;;;;;;;;;4843338;29;20598;-81
2021/03/17 11:23:25;;;;;;;6.53;5.93;;;;;;;;;;4852276;29;20233;-81
2021/03/17 11:25:55;;;;;;;6.20;5.60;;;;;;;;;;4846220;29;20237;-79
2021/03/17 11:28:25;;;;;;;5.80;5.30;;;;;;;;;;4835534;29;20834;-78
2021/03/17 11:30:55;;;;;;;5.63;5.13;;;;;;;;;;4849858;29;20229;-80
2021/03/17 11:33:23;;;;;;;5.10;4.70;;;;;;;;;;4847428;29;20230;-79
2021/03/17 11:35:52;;;;;;;5.40;4.90;;;;;;;;;;4834340;29;20257;-78
2021/03/17 11:38:20;;;;;;;5.67;5.17;;;;;;;;;;4850681;29;20234;-78
2021/03/17 11:40:49;;;;;;;5.27;4.77;;;;;;;;;;4849357;29;20238;-79
2021/03/17 11:43:20;;;;;;;5.87;5.27;;;;;;;;;;4853775;29;20234;-78
2021/03/17 11:45:49;;;;;;;5.37;4.90;;;;;;;;;;4877881;29;20220;-76
2021/03/17 11:48:17;;;;;;;4.80;4.40;;;;;;;;;;4874999;29;20223;-78
2021/03/17 11:50:46;;;;;;;4.20;3.90;;;;;;;;;;4861546;29;20221;-77
2021/03/17 11:53:15;;;;;;;4.83;4.43;;;;;;;;;;4867148;29;20226;-76
2021/03/17 11:55:42;;;;;;;4.93;4.53;;;;;;;;;;4865193;29;20238;-77
2021/03/17 11:58:10;;;;;;;5.57;5.07;;;;;;;;;;4821562;29;20238;-80
2021/03/17 12:00:39;;;;;;;6.30;5.70;;;;;;;;;;4846428;29;20242;-79
2021/03/17 12:03:07;;;;;;;5.43;4.93;;;;;;;;;;4841852;29;20851;-81
2021/03/17 12:05:35;;;;;;;5.40;4.90;;;;;;;;;;4843013;29;20234;-80
2021/03/17 12:08:03;;;;;;;7.23;5.27;;;;;;;;;;4843415;29;20237;-78
2021/03/17 12:10:31;;;;;;;4.70;4.30;;;;;;;;;;4843976;29;20237;-80
2021/03/17 12:12:59;;;;;;;5.07;4.63;;;;;;;;;;4842199;29;20226;-79
2021/03/17 12:15:27;;;;;;;5.13;4.63;;;;;;;;;;4814201;29;20239;-78
2021/03/17 12:17:56;;;;;;;4.63;3.63;;;;;;;;;;4839932;29;20238;-78
2021/03/17 12:20:27;;;;;;;4.27;3.83;;;;;;;;;;4843352;29;20250;-78
2021/03/17 12:23:00;;;;;;;3.70;3.40;;;;;;;;;;4835612;29;20234;-81
2021/03/17 12:25:28;;;;;;;13.50;4.33;;;;;;;;;;4840475;29;20246;-79
2021/03/17 12:27:56;;;;;;;4.10;3.70;;;;;;;;;;4840756;29;20234;-80
2021/03/17 12:30:24;;;;;;;3.90;3.60;;;;;;;;;;4838346;29;20235;-79
2021/03/17 12:32:53;;;;;;;2.97;2.77;;;;;;;;;;4834410;29;20243;-78
2021/03/17 12:35:23;;;;;;;4.07;3.67;;;;;;;;;;4839630;29;20239;-78
2021/03/17 12:37:52;;;;;;;3.70;3.40;;;;;;;;;;4853249;29;20238;-76
2021/03/17 12:40:20;;;;;;;3.87;3.47;;;;;;;;;;4851058;29;20240;-78
2021/03/17 12:42:48;;;;;;;3.60;3.23;;;;;;;;;;4834855;29;20235;-79
2021/03/17 12:45:19;;;;;;;3.60;3.17;;;;;;;;;;4829765;29;20243;-79
2021/03/17 12:47:46;;;;;;;4.50;3.37;;;;;;;;;;4836700;29;20234;-79
2021/03/17 12:50:16;;;;;;;4.10;3.70;;;;;;;;;;4858926;29;20239;-76
2021/03/17 12:52:44;;;;;;;4.13;3.73;;;;;;;;;;4860723;29;20229;-77
2021/03/17 12:55:14;;;;;;;4.03;3.53;;;;;;;;;;4859159;29;20225;-76
2021/03/17 12:57:42;;;;;;;4.70;4.20;;;;;;;;;;4857541;29;20234;-77
2021/03/17 13:00:12;;;;;;;4.60;3.90;;;;;;;;;;4843193;29;20249;-79
2021/03/17 13:02:41;;;;;;;3.53;2.40;;;;;;;;;;4838775;29;20234;-77
2021/03/17 13:05:11;;;;;;;2.53;2.33;;;;;;;;;;4839767;29;20241;-79
2021/03/17 13:07:39;;;;;;;3.63;2.10;;;;;;;;;;4855836;29;20249;-79
2021/03/17 13:10:09;;;;;;;3.80;2.30;;;;;;;;;;4846020;29;20234;-79
2021/03/17 13:12:38;;;;;;;2.17;1.77;;;;;;;;;;4832503;29;20634;-78
2021/03/17 13:15:07;;;;;;;4.50;1.80;;;;;;;;;;4861423;29;20234;-79
2021/03/17 13:17:35;;;;;;;2.90;2.00;;;;;;;;;;4860920;29;20253;-80
2021/03/17 13:20:04;;;;;;;2.43;2.00;;;;;;;;;;4859985;29;20600;-80
2021/03/17 13:22:32;;;;;;;2.20;1.60;;;;;;;;;;4844556;29;20241;-79
2021/03/17 13:25:00;;;;;;;2.80;2.00;;;;;;;;;;4860503;29;20257;-79
2021/03/17 13:27:28;;;;;;;2.07;1.67;;;;;;;;;;4855814;29;20243;-79
2021/03/17 13:29:58;;;;;;;2.73;2.23;;;;;;;;;;4859280;29;20608;-79
2021/03/17 13:32:28;;;;;;;2.63;2.40;;;;;;;;;;4850621;29;20255;-78
2021/03/17 13:34:55;;;;;;;2.70;2.43;;;;;;;;;;4859868;29;20226;-79
2021/03/17 13:37:23;;;;;;;3.33;2.23;;;;;;;;;;4860702;29;20248;-79
2021/03/17 13:39:51;;;;;;;3.03;2.73;;;;;;;;;;4844039;29;20237;-80
2021/03/17 13:42:19;;;;;;;3.63;3.00;;;;;;;;;;4849662;29;20248;-79
2021/03/17 13:44:47;;;;;;;5.03;3.40;;;;;;;;;;4858667;29;20280;-79
2021/03/17 13:47:15;;;;;;;3.50;3.20;;;;;;;;;;4865906;29;20237;-78
2021/03/17 13:49:42;;;;;;;3.33;2.67;;;;;;;;;;4847536;29;20230;-78
2021/03/17 13:52:10;;;;;;;1.87;1.77;;;;;;;;;;4867945;29;20238;-80
2021/03/17 13:54:37;;;;;;;1.80;1.70;;;;;;;;;;4866519;29;20245;-80
2021/03/17 13:57:05;;;;;;;2.30;2.10;;;;;;;;;;4855468;29;20215;-78
2021/03/17 13:59:32;;;;;;;1.73;1.30;;;;;;;;;;4858284;29;20216;-77
2021/03/17 14:02:01;;;;;;;1.30;1.20;;;;;;;;;;4827562;29;20704;-79
2021/03/17 14:04:28;;;;;;;1.40;1.30;;;;;;;;;;4857808;29;20234;-81
2021/03/17 14:06:56;;;;;;;1.53;1.43;;;;;;;;;;4860504;29;20242;-78
2021/03/17 14:09:23;;;;;;;1.67;1.50;;;;;;;;;;4847776;29;20230;-80
2021/03/17 14:11:53;;;;;;;2.37;1.67;;;;;;;;;;4836757;29;20234;-80
2021/03/17 14:14:20;;;;;;;1.63;1.40;;;;;;;;;;4851576;29;20230;-81
2021/03/17 14:16:48;;;;;;;2.03;1.83;;;;;;;;;;4851457;29;20771;-81
2021/03/17 14:19:16;;;;;;;2.13;1.93;;;;;;;;;;4864526;29;20237;-78
2021/03/17 14:21:44;;;;;;;1.80;1.70;;;;;;;;;;4860106;29;20250;-78
2021/03/17 14:24:11;;;;;;;1.80;1.70;;;;;;;;;;4865944;29;20245;-79
2021/03/17 14:26:39;;;;;;;2.10;1.80;;;;;;;;;;4865660;29;20623;-80
2021/03/17 14:29:07;;;;;;;2.03;1.60;;;;;;;;;;4866689;29;20226;-79
2021/03/17 14:31:35;;;;;;;2.03;1.67;;;;;;;;;;4866989;29;20254;-80
2021/03/17 14:34:03;;;;;;;2.10;1.90;;;;;;;;;;4863916;29;20234;-78
2021/03/17 14:36:32;;;;;;;3.10;1.90;;;;;;;;;;4860499;29;20237;-77
2021/03/17 14:38:59;;;;;;;1.83;1.63;;;;;;;;;;4849276;29;20234;-80
2021/03/17 14:41:27;;;;;;;1.40;1.30;;;;;;;;;;4850595;29;20234;-79
2021/03/17 14:43:55;;;;;;;1.67;1.57;;;;;;;;;;4862735;29;20234;-81
2021/03/17 14:46:23;;;;;;;2.77;1.60;;;;;;;;;;4867741;29;20237;-78
2021/03/17 14:48:50;;;;;;;1.43;1.33;;;;;;;;;;4866462;29;20230;-80
2021/03/17 14:51:18;;;;;;;1.60;1.50;;;;;;;;;;4850115;29;20238;-79
2021/03/17 14:53:47;;;;;;;1.53;1.43;;;;;;;;;;4860029;29;20226;-80
2021/03/17 14:56:14;;;;;;;1.67;1.30;;;;;;;;;;4852153;29;20238;-77
2021/03/17 14:58:42;;;;;;;1.33;1.20;;;;;;;;;;4844198;29;20237;-80
2021/03/17 15:01:11;;;;;;;1.57;1.40;;;;;;;;;;4863441;29;20242;-82
2021/03/17 15:03:39;;;;;;;2.87;1.70;;;;;;;;;;4830156;29;20242;-81
2021/03/17 15:06:07;;;;;;;1.43;1.33;;;;;;;;;;4855210;29;20255;-81